createdAt,value
2022-08-28T00:00:41.328Z,2.20
2022-08-28T00:03:14.346Z,2.20
2022-08-28T00:05:44.041Z,2.08
2022-08-28T00:08:14.769Z,2.10
2022-08-28T00:10:43.600Z,2.00
2022-08-28T00:13:19.090Z,2.30
2022-08-28T00:15:50.312Z,2.20
2022-08-28T00:20:46.790Z,1.90
2022-08-28T00:23:15.196Z,2.20
2022-08-28T00:25:43.194Z,2.38
2022-08-28T00:28:18.421Z,1.90
2022-08-28T00:30:57.597Z,1.77
2022-08-28T00:33:30.179Z,2.22
2022-08-28T00:35:58.677Z,1.88
2022-08-28T00:38:30.630Z,2.15
2022-08-28T00:41:04.849Z,2.47
2022-08-28T00:43:38.691Z,1.95
2022-08-28T00:46:11.014Z,2.33
2022-08-28T00:48:39.142Z,1.95
2022-08-28T00:51:26.483Z,1.98
2022-08-28T00:53:58.800Z,1.83
2022-08-28T00:56:27.524Z,2.00
2022-08-28T00:58:57.088Z,1.77
2022-08-28T01:01:25.965Z,2.08
2022-08-28T01:03:54.190Z,1.88
2022-08-28T01:06:22.204Z,2.20
2022-08-28T01:08:52.322Z,2.22
2022-08-28T01:11:20.866Z,2.05
2022-08-28T01:13:49.463Z,2.50
2022-08-28T01:16:19.108Z,2.40
2022-08-28T01:18:47.638Z,2.40
2022-08-28T01:21:29.679Z,2.17
2022-08-28T01:24:05.524Z,2.33
2022-08-28T01:26:33.851Z,2.00
2022-08-28T01:29:02.381Z,2.50
2022-08-28T01:31:31.772Z,2.35
2022-08-28T01:34:00.801Z,2.53
2022-08-28T01:36:31.391Z,2.38
2022-08-28T01:39:07.959Z,2.13
2022-08-28T01:41:42.898Z,2.20
2022-08-28T01:44:11.060Z,2.40
2022-08-28T01:46:41.343Z,2.30
2022-08-28T01:49:12.546Z,2.38
2022-08-28T01:51:41.560Z,2.30
2022-08-28T01:54:10.522Z,2.17
2022-08-28T01:56:41.776Z,2.17
2022-08-28T01:59:13.828Z,2.40
2022-08-28T02:01:43.109Z,2.85
2022-08-28T02:04:11.716Z,2.40
2022-08-28T02:06:39.549Z,2.40
2022-08-28T02:09:13.509Z,1.85
2022-08-28T02:11:45.395Z,2.47
2022-08-28T02:14:15.226Z,3.08
2022-08-28T02:16:42.753Z,2.97
2022-08-28T02:19:10.474Z,2.45
2022-08-28T02:21:38.352Z,2.45
2022-08-28T02:24:06.621Z,2.67
2022-08-28T02:26:34.425Z,2.67
2022-08-28T02:29:02.426Z,2.58
2022-08-28T02:31:31.292Z,3.05
2022-08-28T02:33:58.819Z,2.25
2022-08-28T02:36:27.097Z,2.40
2022-08-28T02:38:57.875Z,2.20
2022-08-28T02:41:27.126Z,2.85
2022-08-28T02:43:54.790Z,2.35
2022-08-28T02:46:22.461Z,2.40
2022-08-28T02:48:50.567Z,2.92
2022-08-28T02:51:20.398Z,2.85
2022-08-28T02:53:49.774Z,3.08
2022-08-28T02:56:17.577Z,3.17
2022-08-28T02:58:45.121Z,2.67
2022-08-28T03:01:15.239Z,2.35
2022-08-28T03:03:44.471Z,2.85
2022-08-28T03:06:13.850Z,3.13
2022-08-28T03:08:45.396Z,2.70
2022-08-28T03:11:13.357Z,2.50
2022-08-28T03:13:42.127Z,2.47
2022-08-28T03:16:17.565Z,2.20
2022-08-28T03:18:46.367Z,2.40
2022-08-28T03:21:14.539Z,2.85
2022-08-28T03:23:42.140Z,3.22
2022-08-28T03:26:18.317Z,2.42
2022-08-28T03:28:52.923Z,3.13
2022-08-28T03:31:24.200Z,3.17
2022-08-28T03:36:25.145Z,2.25
2022-08-28T03:38:59.883Z,3.15
2022-08-28T03:41:42.911Z,2.80
2022-08-28T03:44:10.844Z,2.95
2022-08-28T03:46:39.708Z,2.65
2022-08-28T03:49:07.569Z,2.47
2022-08-28T03:51:35.944Z,3.28
2022-08-28T03:54:06.127Z,2.53
2022-08-28T03:56:34.064Z,2.78
2022-08-28T03:59:05.360Z,2.80
2022-08-28T04:04:01.889Z,2.42
2022-08-28T04:06:29.366Z,2.83
2022-08-28T04:09:00.002Z,2.60
2022-08-28T04:11:28.959Z,3.00
2022-08-28T04:13:57.369Z,3.05
2022-08-28T04:16:24.823Z,2.55
2022-08-28T04:18:52.285Z,2.55
2022-08-28T04:21:29.100Z,3.03
2022-08-28T04:23:56.518Z,3.30
2022-08-28T04:26:26.955Z,3.30
2022-08-28T04:28:56.018Z,2.63
2022-08-28T04:31:31.144Z,2.83
2022-08-28T04:34:07.018Z,2.78
2022-08-28T04:36:35.329Z,3.03
2022-08-28T04:39:06.160Z,3.20
2022-08-28T04:41:34.827Z,3.33
2022-08-28T04:44:02.392Z,3.33
2022-08-28T04:46:31.215Z,2.38
2022-08-28T04:48:59.925Z,3.22
2022-08-28T04:51:28.450Z,2.00
2022-08-28T04:54:00.212Z,3.00
2022-08-28T04:56:27.969Z,2.60
2022-08-28T04:58:55.376Z,3.55
2022-08-28T05:01:24.989Z,2.67
2022-08-28T05:03:59.839Z,3.00
2022-08-28T05:06:30.744Z,2.92
2022-08-28T05:09:00.910Z,2.50
2022-08-28T05:11:34.184Z,2.60
2022-08-28T05:14:11.586Z,3.08
2022-08-28T05:16:47.062Z,2.92
2022-08-28T05:19:16.349Z,2.90
2022-08-28T05:21:44.348Z,3.05
2022-08-28T05:24:14.033Z,3.90
2022-08-28T05:26:42.317Z,2.72
2022-08-28T05:29:11.440Z,3.30
2022-08-28T05:31:41.582Z,3.33
2022-08-28T05:34:10.583Z,2.97
2022-08-28T05:36:40.201Z,3.42
2022-08-28T05:39:11.236Z,2.45
2022-08-28T05:41:42.109Z,2.85
2022-08-28T05:44:15.453Z,2.90
2022-08-28T05:46:47.862Z,2.90
2022-08-28T05:49:18.080Z,2.78
2022-08-28T05:51:46.583Z,2.75
2022-08-28T05:54:15.811Z,2.83
2022-08-28T05:56:45.470Z,3.25
2022-08-28T05:59:14.454Z,2.70
2022-08-28T06:01:48.768Z,2.60
2022-08-28T06:04:25.757Z,3.08
2022-08-28T06:06:54.015Z,2.90
2022-08-28T06:09:29.437Z,2.80
2022-08-28T06:12:01.947Z,2.83
2022-08-28T06:14:31.345Z,2.60
2022-08-28T06:17:00.128Z,3.33
2022-08-28T06:19:30.982Z,2.58
2022-08-28T06:22:01.587Z,2.78
2022-08-28T06:24:35.046Z,2.35
2022-08-28T06:27:02.502Z,2.60
2022-08-28T06:29:29.940Z,2.92
2022-08-28T06:32:01.538Z,2.80
2022-08-28T06:34:29.778Z,2.80
2022-08-28T06:36:58.376Z,2.42
2022-08-28T06:39:26.219Z,3.13
2022-08-28T06:41:53.926Z,2.50
2022-08-28T06:44:22.434Z,2.83
2022-08-28T06:46:53.224Z,2.30
2022-08-28T06:49:21.437Z,2.47
2022-08-28T06:51:49.430Z,2.38
2022-08-28T06:54:22.331Z,2.70
2022-08-28T06:56:52.088Z,2.33
2022-08-28T06:59:20.207Z,2.60
2022-08-28T07:01:47.724Z,2.00
2022-08-28T07:04:15.442Z,2.28
2022-08-28T07:06:54.082Z,2.60
2022-08-28T07:09:24.479Z,2.53
2022-08-28T07:11:52.089Z,2.25
2022-08-28T07:14:19.430Z,2.53
2022-08-28T07:16:46.986Z,2.30
2022-08-28T07:19:15.031Z,2.10
2022-08-28T07:21:45.435Z,2.60
2022-08-28T07:24:16.540Z,2.58
2022-08-28T07:26:45.985Z,2.38
2022-08-28T07:29:14.601Z,2.60
2022-08-28T07:31:47.011Z,2.67
2022-08-28T07:34:16.894Z,2.22
2022-08-28T07:36:44.891Z,1.92
2022-08-28T07:39:15.033Z,2.00
2022-08-28T07:42:03.252Z,2.38
2022-08-28T07:44:49.515Z,2.22
2022-08-28T07:47:18.499Z,2.30
2022-08-28T07:49:46.042Z,1.98
2022-08-28T07:52:13.936Z,1.90
2022-08-28T07:54:41.289Z,2.15
2022-08-28T07:57:10.502Z,1.98
2022-08-28T07:59:39.008Z,2.00
2022-08-28T08:02:07.314Z,2.83
2022-08-28T08:04:35.483Z,2.17
2022-08-28T08:07:04.421Z,2.10
2022-08-28T08:09:32.309Z,1.63
2022-08-28T08:12:00.578Z,2.28
2022-08-28T08:14:28.308Z,1.75
2022-08-28T08:16:55.794Z,2.10
2022-08-28T08:19:23.460Z,1.83
2022-08-28T08:21:54.629Z,2.00
2022-08-28T08:24:26.713Z,1.77
2022-08-28T08:27:00.741Z,1.70
2022-08-28T08:29:33.259Z,2.08
2022-08-28T08:32:06.452Z,1.85
2022-08-28T08:34:41.273Z,1.95
2022-08-28T08:37:09.566Z,1.73
2022-08-28T08:39:38.111Z,1.98
2022-08-28T08:42:21.631Z,1.40
2022-08-28T08:44:52.230Z,1.77
2022-08-28T08:47:48.106Z,2.10
2022-08-28T08:50:25.596Z,2.08
2022-08-28T08:53:23.575Z,1.92
2022-08-28T08:55:57.435Z,1.77
2022-08-28T08:58:30.682Z,1.92
2022-08-28T09:01:10.127Z,1.80
2022-08-28T09:03:55.960Z,1.80
2022-08-28T09:06:52.999Z,2.58
2022-08-28T09:09:53.736Z,2.55
2022-08-28T09:12:28.576Z,2.88
2022-08-28T09:15:33.584Z,1.77
2022-08-28T09:18:26.235Z,2.00
2022-08-28T09:20:58.568Z,2.53
2022-08-28T09:23:29.944Z,1.73
2022-08-28T09:26:12.614Z,2.08
2022-08-28T09:28:42.710Z,1.92
2022-08-28T09:31:19.618Z,1.92
2022-08-28T09:33:52.575Z,1.70
2022-08-28T09:36:32.883Z,1.92
2022-08-28T09:39:18.846Z,1.92
2022-08-28T09:42:19.594Z,1.70
2022-08-28T09:44:56.399Z,1.60
2022-08-28T09:48:03.825Z,1.95
2022-08-28T09:50:42.640Z,1.90
2022-08-28T09:53:10.052Z,1.73
2022-08-28T09:56:03.848Z,1.90
2022-08-28T09:59:14.002Z,1.80
2022-08-28T10:01:51.215Z,1.90
2022-08-28T10:04:34.101Z,1.65
2022-08-28T10:07:34.520Z,1.60
2022-08-28T10:10:37.084Z,2.00
2022-08-28T10:13:24.608Z,1.88
2022-08-28T10:16:12.000Z,1.60
2022-08-28T10:18:48.252Z,2.20
2022-08-28T10:22:01.160Z,1.52
2022-08-28T10:25:03.228Z,1.50
2022-08-28T10:27:56.797Z,1.55
2022-08-28T10:30:26.210Z,1.90
2022-08-28T10:33:24.556Z,1.83
2022-08-28T10:36:01.300Z,1.60
2022-08-28T10:38:46.254Z,1.38
2022-08-28T10:41:34.448Z,1.85
2022-08-28T10:44:04.019Z,2.08
2022-08-28T10:46:51.425Z,1.92
2022-08-28T10:49:30.593Z,1.70
2022-08-28T10:52:27.761Z,1.70
2022-08-28T10:55:08.465Z,1.92
2022-08-28T11:00:22.489Z,1.85
2022-08-28T11:02:59.269Z,1.58
2022-08-28T11:05:46.610Z,1.30
2022-08-28T11:08:32.807Z,2.17
2022-08-28T11:11:02.630Z,2.35
2022-08-28T11:13:47.350Z,1.40
2022-08-28T11:16:25.579Z,1.77
2022-08-28T11:19:08.471Z,1.83
2022-08-28T11:22:04.795Z,1.52
2022-08-28T11:24:44.391Z,1.50
2022-08-28T11:27:21.599Z,1.60
2022-08-28T11:30:04.733Z,1.58
2022-08-28T11:32:35.676Z,1.70
2022-08-28T11:35:12.646Z,1.70
2022-08-28T11:37:49.122Z,1.35
2022-08-28T11:40:32.159Z,1.42
2022-08-28T11:43:16.408Z,1.27
2022-08-28T11:45:48.506Z,1.40
2022-08-28T11:48:35.803Z,1.45
2022-08-28T11:51:07.176Z,1.63
2022-08-28T11:53:55.257Z,1.48
2022-08-28T11:56:51.994Z,1.77
2022-08-28T11:59:50.307Z,1.90
2022-08-28T12:02:40.069Z,1.52
2022-08-28T12:05:16.501Z,1.75
2022-08-28T12:07:51.324Z,1.98
2022-08-28T12:10:27.712Z,1.60
2022-08-28T12:13:03.388Z,1.40
2022-08-28T12:15:31.806Z,1.40
2022-08-28T12:18:05.943Z,1.30
2022-08-28T12:21:00.523Z,1.45
2022-08-28T12:23:45.150Z,1.45
2022-08-28T12:26:24.823Z,1.92
2022-08-28T12:29:17.745Z,0.98
2022-08-28T12:32:41.219Z,1.30
2022-08-28T12:35:28.026Z,1.48
2022-08-28T12:37:57.554Z,1.45
2022-08-28T12:40:38.447Z,1.42
2022-08-28T12:43:08.478Z,1.70
2022-08-28T12:46:07.206Z,1.80
2022-08-28T12:48:54.188Z,1.33
2022-08-28T12:51:34.831Z,1.60
2022-08-28T12:54:09.204Z,1.48
2022-08-28T12:56:39.004Z,1.60
2022-08-28T12:59:52.202Z,1.52
2022-08-28T13:02:27.280Z,1.40
2022-08-28T13:05:07.870Z,1.58
2022-08-28T13:07:46.691Z,1.70
2022-08-28T13:10:36.310Z,1.63
2022-08-28T13:13:19.170Z,2.00
2022-08-28T13:15:55.572Z,1.60
2022-08-28T13:18:45.684Z,1.33
2022-08-28T13:21:32.475Z,1.45
2022-08-28T13:24:26.449Z,1.38
2022-08-28T13:27:31.196Z,1.48
2022-08-28T13:30:13.555Z,1.38
2022-08-28T13:32:41.866Z,1.60
2022-08-28T13:35:18.065Z,1.60
2022-08-28T13:37:54.504Z,1.40
2022-08-28T13:40:56.871Z,1.70
2022-08-28T13:43:29.803Z,1.63
2022-08-28T13:45:58.144Z,2.88
2022-08-28T13:48:28.173Z,1.40
2022-08-28T13:51:03.518Z,1.50
2022-08-28T13:53:33.317Z,1.50
2022-08-28T13:56:00.947Z,1.90
2022-08-28T13:58:30.722Z,1.50
2022-08-28T14:03:39.014Z,1.67
2022-08-28T14:06:14.402Z,1.70
2022-08-28T14:08:44.207Z,1.50
2022-08-28T14:11:13.394Z,1.50
2022-08-28T14:13:47.106Z,1.60
2022-08-28T14:16:25.424Z,1.75
2022-08-28T14:18:54.082Z,1.35
2022-08-28T14:21:24.676Z,1.58
2022-08-28T14:23:52.385Z,1.15
2022-08-28T14:26:20.086Z,1.52
2022-08-28T14:28:47.751Z,1.52
2022-08-28T14:31:15.485Z,1.40
2022-08-28T14:33:45.201Z,1.67
2022-08-28T14:36:23.222Z,1.33
2022-08-28T14:38:54.305Z,1.48
2022-08-28T14:41:24.560Z,1.45
2022-08-28T14:46:32.787Z,1.20
2022-08-28T14:49:09.954Z,1.35
2022-08-28T14:51:41.649Z,1.30
2022-08-28T14:54:12.303Z,1.08
2022-08-28T14:56:41.428Z,1.30
2022-08-28T14:59:16.019Z,1.35
2022-08-28T15:01:46.593Z,1.40
2022-08-28T15:04:18.575Z,1.98
2022-08-28T15:06:46.424Z,1.90
2022-08-28T15:09:15.089Z,1.35
2022-08-28T15:11:44.553Z,1.42
2022-08-28T15:14:13.464Z,1.42
2022-08-28T15:16:47.359Z,1.52
2022-08-28T15:19:18.024Z,1.70
2022-08-28T15:21:53.675Z,1.67
2022-08-28T15:24:27.006Z,1.52
2022-08-28T15:26:55.065Z,1.60
2022-08-28T15:29:22.460Z,1.25
2022-08-28T15:31:51.209Z,1.40
2022-08-28T15:34:24.377Z,1.50
2022-08-28T15:36:55.315Z,1.17
2022-08-28T15:39:44.167Z,1.40
2022-08-28T15:42:12.274Z,1.20
2022-08-28T15:44:40.217Z,1.05
2022-08-28T15:47:08.482Z,1.30
2022-08-28T15:49:45.780Z,1.33
2022-08-28T15:52:18.664Z,1.70
2022-08-28T15:54:46.629Z,1.40
2022-08-28T15:57:14.038Z,1.58
2022-08-28T15:59:49.532Z,1.10
2022-08-28T16:02:24.051Z,1.20
2022-08-28T16:04:54.079Z,1.20
2022-08-28T16:07:23.018Z,1.30
2022-08-28T16:09:51.212Z,1.25
2022-08-28T16:12:20.464Z,1.60
2022-08-28T16:14:48.022Z,1.27
2022-08-28T16:17:15.599Z,1.23
2022-08-28T16:19:44.121Z,1.13
2022-08-28T16:22:16.078Z,1.30
2022-08-28T16:24:47.100Z,1.52
2022-08-28T16:27:16.613Z,1.33
2022-08-28T16:29:45.673Z,1.73
2022-08-28T16:32:14.090Z,1.70
2022-08-28T16:34:44.634Z,1.65
2022-08-28T16:37:13.478Z,1.30
2022-08-28T16:39:46.249Z,1.85
2022-08-28T16:42:13.924Z,1.50
2022-08-28T16:44:41.564Z,1.40
2022-08-28T16:47:09.154Z,1.63
2022-08-28T16:49:36.772Z,1.77
2022-08-28T16:52:04.970Z,1.50
2022-08-28T16:54:33.412Z,1.58
2022-08-28T16:57:01.030Z,1.25
2022-08-28T16:59:28.996Z,1.40
2022-08-28T17:01:56.404Z,1.58
2022-08-28T17:04:25.528Z,1.67
2022-08-28T17:06:53.254Z,1.27
2022-08-28T17:09:23.211Z,1.35
2022-08-28T17:11:52.130Z,1.50
2022-08-28T17:14:22.133Z,1.48
2022-08-28T17:16:50.327Z,2.00
2022-08-28T17:19:18.543Z,1.70
2022-08-28T17:22:04.941Z,1.70
2022-08-28T17:24:32.834Z,1.58
2022-08-28T17:27:05.127Z,1.73
2022-08-28T17:29:35.232Z,1.30
2022-08-28T17:32:05.393Z,1.50
2022-08-28T17:34:32.960Z,1.43
2022-08-28T17:37:00.614Z,1.63
2022-08-28T17:39:28.305Z,1.80
2022-08-28T17:41:56.092Z,1.55
2022-08-28T17:44:23.711Z,1.85
2022-08-28T17:46:54.346Z,1.88
2022-08-28T17:49:22.886Z,1.60
2022-08-28T17:51:51.373Z,1.75
2022-08-28T17:54:22.819Z,1.70
2022-08-28T17:56:52.362Z,2.00
2022-08-28T17:59:22.335Z,1.60
2022-08-28T18:01:50.710Z,1.65
2022-08-28T18:04:24.491Z,1.50
2022-08-28T18:06:54.957Z,1.88
2022-08-28T18:09:24.270Z,1.88
2022-08-28T18:11:53.088Z,1.70
2022-08-28T18:14:21.515Z,1.75
2022-08-28T18:16:49.272Z,1.45
2022-08-28T18:19:16.909Z,1.92
2022-08-28T18:21:45.077Z,1.63
2022-08-28T18:24:13.331Z,1.63
2022-08-28T18:26:43.014Z,1.70
2022-08-28T18:29:11.491Z,2.25
2022-08-28T18:31:39.857Z,1.73
2022-08-28T18:34:08.267Z,1.80
2022-08-28T18:36:37.130Z,1.67
2022-08-28T18:39:04.703Z,1.77
2022-08-28T18:41:43.207Z,2.40
2022-08-28T18:44:15.495Z,2.33
2022-08-28T18:46:44.283Z,4.18
2022-08-28T18:49:12.967Z,3.55
2022-08-28T18:51:43.589Z,2.00
2022-08-28T18:54:14.208Z,2.88
2022-08-28T18:56:44.939Z,2.13
2022-08-28T18:59:12.654Z,2.15
2022-08-28T19:01:40.117Z,2.17
2022-08-28T19:04:08.366Z,2.28
2022-08-28T19:06:36.564Z,2.20
2022-08-28T19:09:05.741Z,2.15
2022-08-28T19:11:33.788Z,2.65
2022-08-28T19:14:03.599Z,2.22
2022-08-28T19:16:32.465Z,4.20
2022-08-28T19:19:02.127Z,3.05
2022-08-28T19:21:31.697Z,2.33
2022-08-28T19:23:59.359Z,2.65
2022-08-28T19:26:27.614Z,2.40
2022-08-28T19:28:56.507Z,2.28
2022-08-28T19:31:26.004Z,2.13
2022-08-28T19:33:54.442Z,1.85
2022-08-28T19:36:22.085Z,2.40
2022-08-28T19:38:49.728Z,2.30
2022-08-28T19:41:17.909Z,2.47
2022-08-28T19:43:45.646Z,2.15
2022-08-28T19:46:19.557Z,1.83
2022-08-28T19:48:50.567Z,2.03
2022-08-28T19:51:23.157Z,2.30
2022-08-28T19:53:58.391Z,2.13
2022-08-28T19:56:32.920Z,2.10
2022-08-28T19:59:03.939Z,2.50
2022-08-28T20:01:37.992Z,1.88
2022-08-28T20:04:08.821Z,1.90
2022-08-28T20:06:37.636Z,2.10
2022-08-28T20:09:08.388Z,2.30
2022-08-28T20:11:40.637Z,1.80
2022-08-28T20:14:08.322Z,2.00
2022-08-28T20:16:43.318Z,2.67
2022-08-28T20:19:12.821Z,2.08
2022-08-28T20:21:44.436Z,2.30
2022-08-28T20:24:17.744Z,2.38
2022-08-28T20:26:45.149Z,2.10
2022-08-28T20:29:14.026Z,2.35
2022-08-28T20:31:45.091Z,2.00
2022-08-28T20:34:14.095Z,2.10
2022-08-28T20:36:44.306Z,2.15
2022-08-28T20:39:12.746Z,2.00
2022-08-28T20:41:42.074Z,2.40
2022-08-28T20:44:13.007Z,2.28
2022-08-28T20:46:42.314Z,1.98
2022-08-28T20:49:13.235Z,1.77
2022-08-28T20:52:01.173Z,2.45
2022-08-28T20:54:37.572Z,1.90
2022-08-28T20:57:08.470Z,1.73
2022-08-28T20:59:40.054Z,1.85
2022-08-28T21:02:27.525Z,1.77
2022-08-28T21:04:56.291Z,2.08
2022-08-28T21:07:25.300Z,2.33
2022-08-28T21:10:05.657Z,1.80
2022-08-28T21:12:36.820Z,1.80
2022-08-28T21:15:06.969Z,1.73
2022-08-28T21:17:35.102Z,2.08
2022-08-28T21:20:08.852Z,2.05
2022-08-28T21:22:39.186Z,2.40
2022-08-28T21:25:08.657Z,2.20
2022-08-28T21:27:37.153Z,1.80
2022-08-28T21:30:07.435Z,2.05
2022-08-28T21:32:36.430Z,1.52
2022-08-28T21:35:07.755Z,1.80
2022-08-28T21:37:36.110Z,2.05
2022-08-28T21:40:07.010Z,1.65
2022-08-28T21:42:34.942Z,1.88
2022-08-28T21:45:02.921Z,1.73
2022-08-28T21:47:31.875Z,1.77
2022-08-28T21:50:00.012Z,1.90
2022-08-28T21:52:31.034Z,1.80
2022-08-28T21:55:00.889Z,2.10
2022-08-28T21:57:29.770Z,2.05
2022-08-28T21:59:58.678Z,2.10
2022-08-28T22:02:27.044Z,1.50
2022-08-28T22:04:55.373Z,2.53
2022-08-28T22:07:23.873Z,2.00
2022-08-28T22:09:52.052Z,2.33
2022-08-28T22:12:20.032Z,2.03
2022-08-28T22:14:47.925Z,1.60
2022-08-28T22:17:16.531Z,2.13
2022-08-28T22:19:46.587Z,2.13
2022-08-28T22:22:34.609Z,1.75
2022-08-28T22:25:02.520Z,1.90
2022-08-28T22:27:32.158Z,1.83
2022-08-28T22:30:00.317Z,1.95
2022-08-28T22:32:28.337Z,1.88
2022-08-28T22:34:57.082Z,2.30
2022-08-28T22:37:26.024Z,1.98
2022-08-28T22:39:54.074Z,1.60
2022-08-28T22:42:23.268Z,1.90
2022-08-28T22:44:51.229Z,1.80
2022-08-28T22:47:19.195Z,2.28
2022-08-28T22:49:47.517Z,2.05
2022-08-28T22:52:16.027Z,1.80
2022-08-28T22:54:44.383Z,2.20
2022-08-28T22:57:12.440Z,2.22
2022-08-28T22:59:40.463Z,1.73
2022-08-28T23:02:08.609Z,1.83
2022-08-28T23:04:36.583Z,2.20
2022-08-28T23:07:05.108Z,1.85
2022-08-28T23:09:33.128Z,1.70
2022-08-28T23:12:10.582Z,1.83
2022-08-28T23:14:38.521Z,1.90
2022-08-28T23:17:06.422Z,1.90
2022-08-28T23:19:34.471Z,1.90
2022-08-28T23:22:02.209Z,2.00
2022-08-28T23:24:31.692Z,1.50
2022-08-28T23:27:14.063Z,1.80
2022-08-28T23:29:47.697Z,1.77
2022-08-28T23:32:21.275Z,1.77
2022-08-28T23:34:49.769Z,1.80
2022-08-28T23:37:17.855Z,2.45
2022-08-28T23:39:45.974Z,2.15
2022-08-28T23:42:15.889Z,1.88
2022-08-28T23:44:44.024Z,2.00
2022-08-28T23:47:13.671Z,1.80
2022-08-28T23:49:42.907Z,2.15
2022-08-28T23:52:10.962Z,2.55
2022-08-28T23:54:40.123Z,2.03
2022-08-28T23:57:09.145Z,1.92
2022-08-28T23:59:39.404Z,1.98
